La Salle, Illinois
Current Conditions -  °F | °C
As of 8:15 AM on Saturday 01 Nov 2014 (Local Time) from KVYS Reporting Station
Clear Clear  
Wind Chill: 20°   Ceiling: Unl
Heat Index: 30°   Visibility: 10mi
Dew Point: 22°   Wind: 12mph
Humidity: 73%   Direction: 350°N
Pressure: 30.47"   Gusts: NA
Location:  41.33°N, 89.09°W
Report Text: KVYS 011315Z AUTO 35010KT 10SM CLR M01/M05 A3047 RMK AO2 T10121055
Loading
Personal Weather Stations






























Interactive Weather Map
Tropical Storm Tracking
New forecast layout! Learn more

10-Day Weather Forecast

Advertisements
Track Severe Weather on mobile